Weather at Tnuvot Ultralight Airfield

Public forecast

Using degrees Celsius for public forecast. Weather courtesy of forecast.io.

Closest aviation weather report (METAR) to Tnuvot Ultralight Airfield

Closest report is Ben Gurion International Airport, 18.4 nm (34.2 km) SSW.

2022/11/27 08:20 (retrieved 17 minutes ago)

LLBG 270820Z 11006KT CAVOK 21/08 Q1016 NOSIG

Closest aviation forecast (TAF) to Tnuvot Ultralight Airfield

Closest forecast is Herzliya Airport, 10.6 nm (19.6 km) SW.

2022/11/27 06:00 (retrieved 3 hours ago)

TAF LLHZ 270500Z 2706/2806 12006KT CAVOK PROB40 TEMPO 2710/2714 05006KT TX22/2711Z TN16/2804Z